Latest Weather Observations for Ouse

IDT60801

Issued at 11:31 pm EDT Sunday 14 February 2016 (issued every 30 minutes, with the page automatically refreshed every 10 minutes)

About weather observations | Map of weather stations | Latest weather observations for TAS | Other Formats
Station Details ID: 095048 Name: OUSE FIRE STATION Lat: -42.48 Lon: 146.71 Height: 90.0 m
Data from the previous 72 hours. | See also: Recent months at Ouse
Date/Time
EDT
Temp
°C
App
Temp
°C
Dew
Point
Rel
Hum
%
Delta-T
°C
Wind Press
QNH
hPa
Press
MSL
hPa
Rain
since 9 am
mm
Dir
 
Spd
km/h
Gust
km/h
Spd
kts
Gust
kts
14/11:30pm 12.1 9.1 4.3 59 3.5 N 9 13 5 7 1009.5 1009.3 0.8
14/11:00pm 12.5 9.2 4.5 58 3.7 NW 11 19 6 10 1009.3 1009.1 0.8
14/10:30pm 13.0 10.1 4.4 56 3.9 NW 9 13 5 7 1009.1 1008.9 0.8
14/10:00pm 13.0 9.0 4.7 57 3.8 NW 15 22 8 12 1008.9 1008.7 0.8
14/09:30pm 13.2 10.1 5.4 59 3.7 NNW 11 17 6 9 1008.9 1008.7 0.8
14/09:00pm 13.3 10.6 5.7 60 3.6 NW 9 17 5 9 1008.3 1008.1 0.8
14/08:30pm 13.6 10.6 6.0 60 3.6 W 11 19 6 10 1007.8 1007.6 0.8
14/08:00pm 14.1 11.1 6.0 58 3.9 WNW 11 20 6 11 1007.3 1007.1 0.8
14/07:30pm 14.8 10.6 5.6 54 4.4 W 17 26 9 14 1006.7 1006.5 0.8
14/07:00pm 15.0 9.5 5.8 54 4.4 WSW 24 33 13 18 1006.4 1006.2 0.8
14/06:30pm 16.8 11.1 4.8 45 5.7 WNW 24 43 13 23 1005.7 1005.5 0.8
14/06:00pm 16.4 10.8 5.4 48 5.3 WSW 24 37 13 20 1005.6 1005.4 0.8
14/05:41pm 17.3 10.7 4.3 42 6.2 W 28 46 15 25 1005.2 1005.0 0.8
14/05:30pm 17.9 11.4 4.8 42 6.3 WNW 28 52 15 28 1004.9 1004.7 0.8
14/05:04pm 17.8 10.6 5.7 45 5.9 W 33 52 18 28 1004.8 1004.6 0.8
14/05:00pm 17.4 9.7 5.4 45 5.8 W 35 52 19 28 1004.5 1004.4 0.8
14/04:30pm 17.2 9.0 4.5 43 6.0 WNW 37 59 20 32 1004.1 1003.9 0.8
14/04:00pm 18.9 12.5 7.0 46 6.0 WNW 30 56 16 30 1003.7 1003.5 0.8
14/03:39pm 17.8 11.8 7.2 50 5.3 WNW 28 46 15 25 1003.9 1003.7 0.8
14/03:30pm 17.6 13.3 7.9 53 4.9 WNW 20 39 11 21 1003.7 1003.5 0.8
14/03:00pm 17.1 11.4 8.3 56 4.5 WNW 28 50 15 27 1004.0 1003.8 0.8
14/02:55pm 17.2 11.4 7.8 54 4.8 WNW 28 50 15 27 1003.9 1003.7 0.8
14/02:30pm 18.3 12.8 9.1 55 4.8 W 28 48 15 26 1003.5 1003.3 0.8
14/02:03pm 17.2 12.0 10.1 63 3.8 NW 28 46 15 25 1003.0 1002.8 0.8
14/02:00pm 17.2 12.5 10.6 65 3.6 NW 26 43 14 23 1003.0 1002.8 0.8
14/01:37pm 16.6 9.9 9.8 64 3.6 W 35 61 19 33 1003.4 1003.2 0.4
14/01:30pm 18.5 11.0 7.9 50 5.4 WNW 37 61 20 33 1002.6 1002.4 0.2
14/01:02pm 19.3 13.4 7.4 46 6.1 NW 28 50 15 27 1002.0 1001.8 0.2
14/01:00pm 19.7 14.5 8.7 49 5.8 NW 26 44 14 24 1001.9 1001.7 0.2
14/12:30pm 18.6 12.9 8.3 51 5.3 NW 28 46 15 25 1002.4 1002.2 0.2
14/12:23pm 19.1 13.6 9.3 53 5.2 NW 28 46 15 25 1002.5 1002.3 0.2
14/12:00pm 17.3 11.9 9.5 60 4.1 NW 28 44 15 24 1002.9 1002.7 0.2
14/11:30am 15.1 8.8 9.7 70 2.8 W 33 54 18 29 1003.4 1003.2 0.2
14/11:23am 16.9 11.4 9.1 60 4.1 W 28 48 15 26 1003.1 1002.9 0.0
14/11:00am 19.0 13.5 7.4 47 5.9 W 26 39 14 21 1002.5 1002.3 0.0
14/10:31am 18.4 11.9 6.3 45 6.0 W 30 50 16 27 1002.6 1002.4 0.0
14/10:30am 18.9 13.4 7.4 47 5.9 W 26 44 14 24 1002.7 1002.5 0.0
14/10:04am 18.6 13.1 7.4 48 5.7 WNW 26 46 14 25 1002.7 1002.5 0.0
14/10:00am 18.8 13.2 7.3 47 5.9 W 26 43 14 23 1002.7 1002.5 0.0
14/09:30am 17.4 11.5 7.5 52 5.0 WNW 28 44 15 24 1002.9 1002.7 0.0
14/09:00am 16.6 11.5 7.8 56 4.5 WNW 24 37 13 20 1003.0 1002.8 0.2
14/08:30am 15.1 11.6 8.6 65 3.3 NW 17 30 9 16 1002.9 1002.7 0.2
14/08:00am 13.9 11.6 9.1 73 2.5 NW 11 15 6 8 1002.8 1002.6 0.2
14/07:30am 14.6 10.6 8.3 66 3.2 WNW 19 28 10 15 1002.6 1002.4 0.2
14/07:00am 11.4 9.1 7.5 77 1.9 N 9 13 5 7 1002.1 1001.9 0.2
14/06:30am 11.7 9.1 7.6 76 2.0 N 11 17 6 9 1001.8 1001.6 0.2
14/06:00am 11.0 7.9 7.3 78 1.8 N 13 19 7 10 1001.8 1001.6 0.2
14/05:30am 11.2 8.1 7.1 76 2.0 NNW 13 17 7 9 1001.7 1001.5 0.2
14/05:00am 10.9 7.7 6.8 76 2.0 N 13 17 7 9 1001.7 1001.5 0.2
14/04:30am 10.5 8.1 7.2 80 1.6 N 9 13 5 7 1002.1 1001.9 0.2
14/04:00am 10.2 8.4 7.3 82 1.4 NNW 6 9 3 5 1002.6 1002.4 0.2
14/03:30am 10.7 8.6 8.1 84 1.3 N 9 11 5 6 1002.9 1002.7 0.2
14/03:00am 9.7 7.1 7.8 88 0.9 N 11 13 6 7 1002.9 1002.7 0.2
14/02:30am 10.2 7.7 8.0 86 1.1 NNW 11 17 6 9 1002.7 1002.5 0.2
14/02:00am 10.9 8.5 8.5 85 1.2 NNW 11 13 6 7 1003.1 1002.9 0.2
14/01:30am 12.1 10.2 8.9 81 1.6 N 9 13 5 7 1003.4 1003.2 0.2
14/01:00am 13.4 11.0 8.7 73 2.4 NNW 11 19 6 10 1003.6 1003.4 0.2
14/12:30am 14.6 11.8 8.5 67 3.1 NW 13 20 7 11 1004.1 1003.9 0.2
14/12:00am 15.3 12.0 9.4 68 3.1 NNW 17 22 9 12 1004.1 1003.9 0.2
 
Date/Time
EDT
Temp
°C
App
Temp
°C
Dew
Point
Rel
Hum
%
Delta-T
°C
Wind Press
QNH
hPa
Press
MSL
hPa
Rain
since 9 am
mm
Dir
 
Spd
km/h
Gust
km/h
Spd
kts
Gust
kts
13/11:30pm 15.6 13.0 9.3 66 3.3 NW 13 20 7 11 1004.1 1003.9 0.2
13/11:00pm 16.2 14.8 10.9 71 2.9 W 9 15 5 8 1004.3 1004.1 0.2
13/10:30pm 16.4 14.6 12.0 75 2.4 WNW 13 20 7 11 1003.9 1003.7 0.2
13/10:00pm 16.0 15.0 12.4 79 2.0 WNW 9 17 5 9 1003.8 1003.6 0.2
13/09:30pm 16.6 13.7 12.4 76 2.3 W 19 30 10 16 1003.7 1003.5 0.2
13/09:00pm 18.4 16.6 12.2 67 3.5 NW 13 20 7 11 1002.8 1002.6 0.0
13/08:30pm 18.9 16.9 12.6 67 3.5 WNW 15 20 8 11 1002.5 1002.3 0.0
13/08:00pm 19.6 15.9 12.8 65 3.9 WNW 24 41 13 22 1002.1 1001.9 0.0
13/07:51pm 20.3 15.9 12.8 62 4.3 WNW 28 46 15 25 1001.9 1001.7 0.0
13/07:30pm 21.6 18.5 12.2 55 5.3 WNW 20 28 11 15 1001.2 1001.0 0.0
13/07:00pm 23.8 19.8 11.8 47 6.8 WNW 24 35 13 19 1000.8 1000.6 0.0
13/06:30pm 23.9 20.4 10.9 44 7.3 WNW 20 28 11 15 1000.5 1000.3 0.0
13/06:00pm 24.7 20.2 10.2 40 8.1 WNW 24 35 13 19 1000.5 1000.3 0.0
13/05:30pm 25.4 20.8 9.7 37 8.7 WNW 24 37 13 20 1000.6 1000.4 0.0
13/05:00pm 26.0 21.8 9.8 36 9.0 W 22 43 12 23 1000.8 1000.6 0.0
13/04:46pm 26.8 21.4 9.6 34 9.5 W 28 48 15 26 1001.0 1000.8 0.0
13/04:30pm 26.8 21.8 9.6 34 9.5 WSW 26 39 14 21 1000.9 1000.7 0.0
13/04:17pm 26.9 21.6 9.7 34 9.6 WSW 28 46 15 25 1001.0 1000.8 0.0
13/04:00pm 27.2 22.4 10.4 35 9.5 WSW 26 39 14 21 1001.0 1000.8 0.0
13/03:44pm 27.3 20.6 9.6 33 9.8 WSW 35 56 19 30 1000.9 1000.7 0.0
13/03:30pm 28.4 23.3 10.6 33 10.1 WSW 28 43 15 23 1000.8 1000.6 0.0
13/03:00pm 28.0 23.5 10.2 33 10.1 WSW 24 39 13 21 1000.8 1000.6 0.0
13/02:30pm 27.9 24.2 10.1 33 10.0 WSW 20 37 11 20 1001.0 1000.8 0.0
13/02:09pm 27.2 21.8 9.5 33 9.8 W 28 46 15 25 1001.4 1001.2 0.0
13/02:00pm 27.4 23.9 10.2 34 9.7 W 19 33 10 18 1001.4 1001.2 0.0
13/01:30pm 27.1 22.8 9.5 33 9.8 W 22 32 12 17 1001.7 1001.5 0.0
13/01:00pm 27.3 22.8 8.7 31 10.2 W 22 32 12 17 1002.0 1001.8 0.0
13/12:30pm 27.1 23.1 9.0 32 10.0 W 20 39 11 21 1002.3 1002.1 0.0
13/12:00pm 25.8 22.1 7.9 32 9.6 WNW 17 32 9 17 1002.7 1002.5 0.0
13/11:30am 25.4 23.4 10.1 38 8.5 WNW 11 20 6 11 1003.2 1003.0 0.0
13/11:00am 23.7 21.2 9.7 41 7.7 WNW 13 20 7 11 1003.5 1003.3 0.0
13/10:30am 22.5 21.2 10.0 45 6.8 NE 7 13 4 7 1004.0 1003.8 0.0
13/10:00am 21.5 19.1 10.0 48 6.3 NNE 13 19 7 10 1004.5 1004.4 0.0
13/09:30am 20.2 17.9 10.3 53 5.4 NNE 13 20 7 11 1005.0 1004.8 0.0
13/09:00am 18.5 17.3 11.6 64 3.8 N 9 17 5 9 1005.4 1005.2 0.0
13/08:30am 15.0 14.2 11.6 80 1.8 N 7 11 4 6 1005.7 1005.5 0.0
13/08:00am 13.6 12.6 10.4 81 1.7 N 6 9 3 5 1005.6 1005.4 0.0
13/07:30am 12.7 12.2 9.5 81 1.6 NE 2 6 1 3 1005.4 1005.2 0.0
13/07:00am 12.2 12.0 9.2 82 1.5 CALM 0 0 0 0 1005.4 1005.2 0.0
13/06:30am 11.7 10.2 9.3 85 1.2 NNW 7 11 4 6 1005.4 1005.2 0.0
13/06:00am 11.7 11.5 9.1 84 1.3 CALM 0 7 0 4 1005.0 1004.8 0.0
13/05:30am 11.3 11.0 8.7 84 1.3 CALM 0 0 0 0 1005.0 1004.8 0.0
13/05:00am 11.0 10.7 8.6 85 1.2 CALM 0 0 0 0 1005.3 1005.1 0.0
13/04:30am 11.1 10.3 8.1 82 1.5 WNW 2 7 1 4 1005.7 1005.5 0.0
13/04:00am 11.9 10.3 7.8 76 2.0 N 6 9 3 5 1005.9 1005.7 0.0
13/03:30am 13.2 12.6 8.9 75 2.2 NNW 2 9 1 5 1006.4 1006.2 0.0
13/03:00am 13.5 11.4 8.4 71 2.6 NNW 9 13 5 7 1006.3 1006.1 0.0
13/02:30am 13.4 11.7 8.5 72 2.5 N 7 11 4 6 1007.0 1006.8 0.0
13/02:00am 13.9 11.9 8.5 70 2.7 N 9 13 5 7 1007.5 1007.3 0.0
13/01:30am 15.0 12.6 8.5 65 3.3 N 11 13 6 7 1007.8 1007.6 0.0
13/01:00am 14.3 11.7 7.8 65 3.2 N 11 15 6 8 1008.0 1007.8 0.0
13/12:30am 16.3 14.2 8.3 59 4.1 NNW 9 15 5 8 1008.2 1008.0 0.0
13/12:00am 17.4 15.6 10.8 65 3.6 NNW 11 17 6 9 1008.5 1008.3 0.0
 
Date/Time
EDT
Temp
°C
App
Temp
°C
Dew
Point
Rel
Hum
%
Delta-T
°C
Wind Press
QNH
hPa
Press
MSL
hPa
Rain
since 9 am
mm
Dir
 
Spd
km/h
Gust
km/h
Spd
kts
Gust
kts
12/11:30pm 18.1 16.3 9.5 57 4.5 NNW 9 13 5 7 1008.5 1008.3 0.0
12/11:00pm 19.3 17.1 9.5 53 5.2 NNW 11 15 6 8 1008.8 1008.6 0.0
12/10:30pm 19.8 16.9 9.7 52 5.4 N 15 22 8 12 1009.3 1009.1 0.0
12/10:00pm 19.9 17.7 9.5 51 5.6 N 11 17 6 9 1009.6 1009.4 0.0
12/09:30pm 20.7 18.7 8.7 46 6.3 NNE 9 15 5 8 1009.5 1009.3 0.0
12/09:00pm 22.7 20.1 6.0 34 8.5 N 9 17 5 9 1009.3 1009.1 0.0
12/08:30pm 23.7 19.8 7.3 35 8.6 N 17 30 9 16 1009.3 1009.1 0.0
12/08:00pm 24.4 18.9 7.5 34 8.9 N 26 39 14 21 1009.1 1008.9 0.0
12/07:30pm 25.4 20.9 8.4 34 9.2 N 22 39 12 21 1008.8 1008.6 0.0
12/07:00pm 26.7 22.8 8.6 32 9.9 N 19 32 10 17 1008.8 1008.6 0.0
12/06:30pm 27.7 23.6 8.6 30 10.5 NNW 20 30 11 16 1008.8 1008.6 0.0
12/06:00pm 28.4 23.9 8.7 29 10.9 N 22 35 12 19 1008.8 1008.6 0.0
12/05:30pm 28.5 23.8 9.2 30 10.7 N 24 39 13 21 1009.1 1008.9 0.0
12/05:00pm 28.8 25.4 10.5 32 10.4 N 19 28 10 15 1009.4 1009.2 0.0
12/04:30pm 28.6 26.4 9.3 30 10.8 WNW 11 19 6 10 1009.5 1009.3 0.0
12/04:00pm 28.4 25.2 10.1 32 10.3 E 17 35 9 19 1010.0 1009.8 0.0
12/03:30pm 27.0 25.9 9.8 34 9.6 NNE 6 13 3 7 1010.7 1010.5 0.0
12/03:00pm 27.3 26.0 11.3 37 9.2 SE 9 17 5 9 1011.5 1011.3 0.0
12/02:30pm 26.4 24.5 11.7 40 8.4 ESE 13 20 7 11 1011.8 1011.6 0.0
12/02:00pm 26.6 26.1 12.6 42 8.2 E 7 13 4 7 1012.3 1012.1 0.0
12/01:30pm 25.8 23.7 12.3 43 7.8 S 15 24 8 13 1012.9 1012.7 0.0
12/01:00pm 24.3 23.5 12.9 49 6.6 ESE 9 17 5 9 1013.5 1013.3 0.0
12/12:30pm 23.7 22.5 12.7 50 6.3 SSE 11 17 6 9 1014.4 1014.3 0.0
12/12:00pm 22.3 21.2 12.0 52 5.8 ESE 9 17 5 9 1015.3 1015.2 0.0
12/11:30am 21.8 20.8 12.4 55 5.3 ENE 9 17 5 9 1015.8 1015.7 0.0
12/11:00am 20.9 20.0 11.5 55 5.2 W 7 11 4 6 1016.6 1016.4 0.0
12/10:30am 19.7 19.3 11.2 58 4.7 N 4 11 2 6 1017.0 1016.8 0.0
12/10:00am 18.9 17.5 11.0 60 4.3 ENE 9 13 5 7 1017.5 1017.3 0.0
12/09:30am 18.4 17.6 11.7 65 3.7 NNE 7 13 4 7 1018.1 1017.9 0.0
12/09:00am 17.3 16.6 12.0 71 2.9 NNE 7 11 4 6 1018.3 1018.1 0.0
12/08:30am 16.8 17.5 12.3 75 2.5 CALM 0 6 0 3 1018.3 1018.1 0.0
12/08:00am 15.7 16.4 12.3 80 1.9 CALM 0 0 0 0 1018.0 1017.8 0.0
12/07:30am 15.1 15.8 12.2 83 1.6 CALM 0 0 0 0 1017.8 1017.6 0.0
12/07:00am 14.5 15.1 11.8 84 1.5 CALM 0 4 0 2 1017.5 1017.3 0.0
12/06:30am 14.3 14.9 11.8 85 1.3 CALM 0 0 0 0 1017.2 1017.0 0.0
12/06:00am 14.4 14.8 11.4 82 1.6 CALM 0 0 0 0 1017.3 1017.1 0.0
12/05:30am 14.6 15.1 11.6 82 1.6 CALM 0 0 0 0 1017.0 1016.8 0.0
12/05:00am 14.9 15.1 11.7 81 1.7 ESE 2 7 1 4 1017.2 1017.0 0.0
12/04:30am 15.4 14.6 11.8 79 2.0 SE 7 9 4 5 1017.2 1017.0 0.0
12/04:00am 15.3 14.5 11.7 79 1.9 SE 7 9 4 5 1017.5 1017.3 0.0
12/03:30am 15.2 14.3 11.4 78 2.0 SE 7 9 4 5 1017.5 1017.3 0.0
12/03:00am 15.4 14.2 11.6 78 2.1 SE 9 11 5 6 1017.6 1017.4 0.0
12/02:30am 15.9 14.7 11.7 76 2.3 SE 9 11 5 6 1017.8 1017.6 0.0
12/02:00am 16.1 14.2 11.7 75 2.4 SE 13 17 7 9 1017.7 1017.5 0.0
12/01:30am 16.3 14.4 11.7 74 2.5 ESE 13 19 7 10 1017.9 1017.7 0.0
12/01:00am 16.6 15.0 11.5 72 2.8 ESE 11 17 6 9 1018.0 1017.8 0.0
12/12:30am 16.8 15.1 11.3 70 3.0 SSE 11 17 6 9 1018.1 1017.9 0.0
12/12:00am 16.9 15.3 11.4 70 3.0 SE 11 17 6 9 1018.1 1017.9 0.0

Other Formats:

Comma delimited format used in spreadsheet applications
http://www.bom.gov.au/fwo/IDT60801/IDT60801.94957.axf

JavaScript Object Notation format (JSON) in row-major order
http://www.bom.gov.au/fwo/IDT60801/IDT60801.94957.json